Time;durP1;ratioP1;P1;durP2;ratioP2;P2;SDS_P1;SDS_P2;PMS_P1;PMS_P2;Temp;Humidity;BMP_temperature;BMP_pressure;BME280_temperature;BME280_humidity;BME280_pressure;Samples;Min_cycle;Max_cycle;Signal;HPM_P1;HPM_P2
2021/12/20 00:01:10;;;;;;;5.12;1.92;;;;;;;4.25;75.30;98933.59;5300420;27;33395;-75
2021/12/20 00:03:38;;;;;;;6.55;3.12;;;;;;;4.23;75.33;98947.34;5299935;27;34147;-77
2021/12/20 00:06:06;;;;;;;5.32;3.20;;;;;;;4.35;74.68;98940.56;5299563;27;35146;-76
2021/12/20 00:08:36;;;;;;;9.13;3.72;;;;;;;4.06;75.77;98942.03;5299628;27;35349;-69
2021/12/20 00:11:04;;;;;;;5.45;3.33;;;;;;;4.53;73.98;98944.97;5300302;27;32795;-73
2021/12/20 00:13:32;;;;;;;4.55;2.90;;;;;;;4.13;75.61;98948.94;5279716;27;34024;-69
2021/12/20 00:16:00;;;;;;;5.85;2.87;;;;;;;4.25;75.04;98941.31;5298782;27;35123;-74
2021/12/20 00:18:28;;;;;;;12.98;3.62;;;;;;;4.33;75.03;98950.00;5299653;27;34660;-78
2021/12/20 00:20:56;;;;;;;4.65;2.78;;;;;;;4.16;75.87;98955.03;5300176;27;34284;-70
2021/12/20 00:23:23;;;;;;;6.12;2.95;;;;;;;4.33;75.25;98949.13;5299698;27;33993;-75
2021/12/20 00:25:52;;;;;;;4.82;2.15;;;;;;;4.49;74.62;98950.13;5300270;27;35905;-73
2021/12/20 00:28:20;;;;;;;4.18;2.47;;;;;;;4.48;74.24;98944.09;5299596;27;34509;-77
2021/12/20 00:30:48;;;;;;;5.72;3.08;;;;;;;4.41;74.68;98941.44;5300319;27;33576;-72
2021/12/20 00:33:17;;;;;;;7.90;2.78;;;;;;;4.59;73.91;98946.75;5299592;27;33917;-73
2021/12/20 00:35:46;;;;;;;8.05;2.97;;;;;;;4.44;74.78;98938.91;5299291;27;35092;-73
2021/12/20 00:41:00;;;;;;;5.87;3.40;;;;;;;4.48;74.49;98935.50;5298481;27;33704;-80
2021/12/20 00:43:28;;;;;;;4.53;2.58;;;;;;;4.82;73.47;98946.91;5299548;27;34629;-75
2021/12/20 00:45:56;;;;;;;3.70;2.20;;;;;;;4.55;74.57;98955.31;5262773;27;34652;-72
2021/12/20 00:48:24;;;;;;;4.53;2.47;;;;;;;4.65;73.77;98951.94;5297847;27;33803;-70
2021/12/20 00:50:52;;;;;;;4.28;2.40;;;;;;;4.61;74.16;98946.78;5300352;27;33511;-75
2021/12/20 00:53:20;;;;;;;5.75;2.58;;;;;;;4.63;74.20;98951.06;5299237;27;33805;-69
2021/12/20 00:55:48;;;;;;;5.75;2.30;;;;;;;4.79;73.80;98956.34;5298914;27;35277;-73
2021/12/20 00:58:16;;;;;;;4.15;2.33;;;;;;;4.86;72.94;98960.69;5300480;27;34602;-70
2021/12/20 01:00:48;;;;;;;4.53;1.73;;;;;;;4.62;73.80;98969.12;5302328;27;33837;-72
2021/12/20 01:03:19;;;;;;;4.87;2.40;;;;;;;4.75;73.67;98969.22;5301910;27;33939;-71
2021/12/20 01:05:49;;;;;;;5.20;2.33;;;;;;;4.63;73.86;98969.12;5283101;27;35690;-75
2021/12/20 01:08:19;;;;;;;3.25;2.33;;;;;;;4.93;72.46;98975.34;5301809;27;34575;-77
2021/12/20 01:10:51;;;;;;;2.67;1.70;;;;;;;4.34;74.37;98974.03;5302494;27;32911;-71
2021/12/20 01:13:22;;;;;;;4.25;2.10;;;;;;;4.63;73.84;98982.03;5282968;27;34808;-72
2021/12/20 01:15:53;;;;;;;5.65;2.45;;;;;;;4.74;73.25;98982.94;5282704;27;35127;-78
2021/12/20 01:18:22;;;;;;;6.07;2.65;;;;;;;4.34;74.51;98995.56;5301881;27;34573;-72
2021/12/20 01:20:50;;;;;;;3.47;1.98;;;;;;;4.40;74.16;98994.72;5282769;27;34335;-71
2021/12/20 01:23:19;;;;;;;3.47;1.90;;;;;;;4.18;76.08;99007.44;5301879;27;33994;-77
2021/12/20 01:25:47;;;;;;;5.12;2.20;;;;;;;4.38;75.35;99001.59;5301216;27;35044;-76
2021/12/20 01:28:15;;;;;;;4.22;2.53;;;;;;;4.45;75.03;99005.94;5301627;27;35314;-74
2021/12/20 01:30:43;;;;;;;3.65;2.33;;;;;;;4.33;75.80;99004.13;5299762;27;33549;-73
2021/12/20 01:33:12;;;;;;;4.22;2.20;;;;;;;3.88;78.01;99014.84;5282173;27;34021;-70
2021/12/20 01:35:41;;;;;;;4.82;2.22;;;;;;;3.96;78.83;99019.22;5301646;27;35852;-71
2021/12/20 01:38:09;;;;;;;4.37;1.87;;;;;;;3.94;78.98;99010.63;5301593;27;34532;-73
2021/12/20 01:40:38;;;;;;;4.55;2.05;;;;;;;4.20;78.69;99011.72;5302308;27;33395;-72
2021/12/20 01:43:08;;;;;;;4.72;2.37;;;;;;;3.91;79.17;98996.84;5301936;27;34885;-76
2021/12/20 01:45:36;;;;;;;4.40;1.87;;;;;;;3.96;78.97;98982.31;5302160;27;35215;-73
2021/12/20 01:48:11;;;;;;;3.50;2.30;;;;;;;3.76;80.03;98984.69;5301565;27;34385;-71
2021/12/20 01:53:15;;;;;;;3.17;2.03;;;;;;;3.67;80.56;99015.44;5301460;27;34769;-71
2021/12/20 01:55:43;;;;;;;6.00;2.70;;;;;;;3.82;80.64;98989.88;5302146;27;36038;-70
2021/12/20 01:58:11;;;;;;;5.68;2.92;;;;;;;3.80;80.10;99001.87;5301862;27;35236;-78
2021/12/20 02:03:27;;;;;;;;;;;;;;;4.04;79.08;99008.13;5301987;27;34941;-78
2021/12/20 02:05:58;;;;;;;3.05;1.95;;;;;;;3.50;81.12;99012.69;5302013;27;35393;-75
2021/12/20 02:08:28;;;;;;;8.13;2.15;;;;;;;3.70;81.08;99007.78;5281757;27;34386;-75
2021/12/20 02:10:59;;;;;;;5.55;3.00;;;;;;;3.72;80.97;99018.94;5299032;27;33429;-70
2021/12/20 02:13:29;;;;;;;8.20;2.67;;;;;;;3.92;79.60;99022.62;5280752;27;33926;-75
2021/12/20 02:15:59;;;;;;;3.55;1.65;;;;;;;3.60;80.75;99022.25;5300512;27;34224;-76
2021/12/20 02:18:28;;;;;;;4.87;2.58;;;;;;;3.96;80.07;99036.41;5300017;27;35244;-76
2021/12/20 02:20:57;;;;;;;7.35;2.03;;;;;;;3.94;79.76;99035.53;5300515;27;33854;-71
2021/12/20 02:23:26;;;;;;;4.47;2.17;;;;;;;3.73;80.24;99043.88;5279955;27;33225;-72
2021/12/20 02:25:54;;;;;;;7.90;2.30;;;;;;;3.51;80.70;99048.75;5300587;27;35135;-75
2021/12/20 02:28:23;;;;;;;2.70;1.75;;;;;;;3.43;81.32;99045.22;5299252;27;35201;-77
2021/12/20 02:39:00;;;;;;;10.10;2.65;;;;;;;3.59;79.30;99044.56;5284087;27;35419;-73
2021/12/20 02:41:32;;;;;;;3.67;2.00;;;;;;;3.85;78.06;99050.84;5299893;27;33443;-73
2021/12/20 02:44:05;;;;;;;3.80;1.70;;;;;;;3.61;78.40;99047.16;5300071;27;34044;-74
2021/12/20 02:49:17;;;;;;;4.93;1.77;;;;;;;3.06;80.43;99062.69;5280613;27;35265;-70
2021/12/20 02:51:49;;;;;;;3.70;1.73;;;;;;;3.61;77.59;99054.88;5299387;27;34386;-75
2021/12/20 02:54:19;;;;;;;3.00;1.60;;;;;;;3.37;78.63;99057.97;5300088;27;34775;-75
2021/12/20 02:56:48;;;;;;;2.42;1.70;;;;;;;2.79;80.90;99069.16;5300829;27;35878;-69
2021/12/20 02:59:17;;;;;;;2.70;1.67;;;;;;;3.34;78.89;99076.84;5279968;27;34569;-73
2021/12/20 03:01:55;;;;;;;5.22;1.75;;;;;;;2.95;79.96;99079.69;5299971;27;34177;-69
2021/12/20 03:04:24;;;;;;;2.90;1.83;;;;;;;3.40;77.01;99076.03;5300117;27;34933;-73
2021/12/20 03:07:00;;;;;;;2.95;1.70;;;;;;;3.22;78.58;99074.09;5281066;27;35001;-69
2021/12/20 03:09:34;;;;;;;2.37;1.48;;;;;;;3.11;78.59;99094.50;5299852;27;34537;-76
2021/12/20 03:12:04;;;;;;;3.28;1.67;;;;;;;2.87;78.32;99096.69;5300643;27;33582;-70
2021/12/20 03:14:37;;;;;;;4.20;1.60;;;;;;;2.67;78.88;99094.66;5298020;27;33992;-77
2021/12/20 03:17:05;;;;;;;2.90;1.62;;;;;;;3.28;77.12;99096.47;5298228;27;34753;-70
2021/12/20 03:19:34;;;;;;;2.80;1.67;;;;;;;3.51;75.71;99102.81;5299535;27;35136;-75
2021/12/20 03:22:03;;;;;;;2.37;1.55;;;;;;;2.81;78.38;99098.31;5280743;27;34099;-76
2021/12/20 03:24:31;;;;;;;2.03;1.67;;;;;;;2.82;77.38;99105.22;5298210;27;33841;-77
2021/12/20 03:26:59;;;;;;;5.55;1.60;;;;;;;2.75;78.48;99095.63;5298673;27;35189;-76
2021/12/20 03:29:27;;;;;;;3.90;2.03;;;;;;;2.79;77.16;99104.28;5299468;27;34518;-71
2021/12/20 03:31:54;;;;;;;9.10;2.50;;;;;;;2.15;80.40;99101.41;5300440;27;34275;-74
2021/12/20 03:34:23;;;;;;;4.43;1.90;;;;;;;2.44;78.63;99087.41;5299399;27;33800;-77
2021/12/20 03:36:51;;;;;;;3.62;1.50;;;;;;;1.84;80.68;99098.25;5300189;27;35240;-72
2021/12/20 03:39:19;;;;;;;4.68;1.95;;;;;;;2.13;80.27;99085.97;5299527;27;35418;-69
2021/12/20 03:41:48;;;;;;;2.92;1.73;;;;;;;1.97;80.04;99092.53;5280661;27;33494;-74
2021/12/20 03:44:16;;;;;;;4.62;1.90;;;;;;;2.26;79.34;99097.38;5299560;27;34745;-75
2021/12/20 03:46:44;;;;;;;4.53;1.85;;;;;;;2.30;78.73;99101.72;5300335;27;35193;-70
2021/12/20 03:49:12;;;;;;;1.95;1.60;;;;;;;2.20;79.18;99092.97;5280241;27;34596;-70
2021/12/20 03:51:40;;;;;;;6.78;2.03;;;;;;;2.61;77.40;99098.00;5299596;27;33863;-75
2021/12/20 03:54:08;;;;;;;4.93;1.67;;;;;;;2.30;78.57;99104.28;5299416;27;34732;-74
2021/12/20 03:56:36;;;;;;;2.10;1.62;;;;;;;1.98;79.63;99107.09;5300266;27;35152;-75
2021/12/20 03:59:04;;;;;;;4.20;2.40;;;;;;;2.00;79.44;99104.56;5299343;27;35328;-74
2021/12/20 04:01:32;;;;;;;3.50;1.65;;;;;;;1.76;79.59;99110.94;5300089;27;33608;-75
2021/12/20 04:04:01;;;;;;;11.75;2.08;;;;;;;2.10;77.60;99116.75;5299999;27;34158;-71
2021/12/20 04:06:31;;;;;;;4.05;1.50;;;;;;;2.12;77.86;99129.59;5300033;27;34841;-74
2021/12/20 04:08:59;;;;;;;3.78;1.70;;;;;;;2.17;77.43;99125.44;5279784;27;34461;-74
2021/12/20 04:11:27;;;;;;;4.00;2.25;;;;;;;1.93;77.50;99118.97;5280618;27;34315;-74
2021/12/20 04:13:56;;;;;;;4.53;2.28;;;;;;;1.87;77.89;99124.87;5299631;27;33924;-75
2021/12/20 04:16:24;;;;;;;4.82;2.10;;;;;;;1.73;78.59;99127.97;5300063;27;35107;-74
2021/12/20 04:18:53;;;;;;;5.47;2.00;;;;;;;1.86;77.91;99122.25;5297953;27;33154;-72
2021/12/20 04:21:22;;;;;;;4.87;2.12;;;;;;;2.24;76.59;99124.72;5299973;27;33384;-70
2021/12/20 04:23:50;;;;;;;4.15;1.77;;;;;;;1.61;78.78;99124.31;5297896;27;33815;-71
2021/12/20 04:26:18;;;;;;;4.72;2.75;;;;;;;1.93;77.99;99128.41;5297978;27;35201;-71
2021/12/20 04:28:46;;;;;;;9.23;2.75;;;;;;;2.13;75.87;99131.34;5280275;27;35301;-74
2021/12/20 04:31:14;;;;;;;8.45;2.62;;;;;;;1.37;78.25;99126.34;5299893;27;33930;-71
2021/12/20 04:33:43;;;;;;;6.75;2.62;;;;;;;1.40;77.54;99136.69;5298978;27;33632;-72
2021/12/20 04:36:10;;;;;;;6.70;2.40;;;;;;;1.44;77.98;99133.34;5299331;27;34939;-73
2021/12/20 04:38:39;;;;;;;4.45;2.17;;;;;;;1.65;77.01;99138.94;5299364;27;34651;-73
2021/12/20 04:41:08;;;;;;;3.33;2.28;;;;;;;1.30;77.28;99144.12;5299404;27;33411;-72
2021/12/20 04:43:36;;;;;;;6.95;3.12;;;;;;;1.62;76.18;99144.00;5299292;27;34821;-70
2021/12/20 04:46:04;;;;;;;4.82;2.45;;;;;;;1.24;77.62;99145.72;5299856;27;35857;-76
2021/12/20 04:48:32;;;;;;;4.30;2.50;;;;;;;1.43;77.22;99157.25;5299151;27;34551;-74
2021/12/20 04:51:00;;;;;;;4.12;2.22;;;;;;;1.90;75.14;99154.84;5299889;27;33696;-76
2021/12/20 04:53:28;;;;;;;3.97;2.05;;;;;;;1.47;76.50;99157.38;5279754;27;34064;-70
2021/12/20 04:55:56;;;;;;;3.62;2.50;;;;;;;2.15;73.80;99145.09;5298450;27;36049;-73
2021/12/20 04:58:24;;;;;;;4.97;2.50;;;;;;;1.74;74.42;99152.81;5298841;27;34541;-70
2021/12/20 05:00:52;;;;;;;4.45;2.05;;;;;;;1.82;74.04;99162.41;5299482;27;33980;-77
2021/12/20 05:03:21;;;;;;;4.20;2.12;;;;;;;1.96;72.88;99165.28;5299762;27;34639;-76
2021/12/20 05:05:49;;;;;;;4.80;2.50;;;;;;;1.87;73.32;99168.50;5299036;27;35723;-73
2021/12/20 05:08:19;;;;;;;4.28;2.30;;;;;;;1.58;74.18;99165.31;5299709;27;35162;-74
2021/12/20 05:10:47;;;;;;;3.87;2.62;;;;;;;1.67;74.28;99178.31;5299531;27;33439;-70
2021/12/20 05:13:15;;;;;;;4.03;2.37;;;;;;;1.63;74.00;99176.53;5299632;27;34035;-71
2021/12/20 05:15:45;;;;;;;5.18;2.58;;;;;;;1.32;74.24;99185.22;5299082;27;35958;-70
2021/12/20 05:18:13;;;;;;;3.72;2.47;;;;;;;1.48;74.05;99186.44;5299482;27;34248;-78
2021/12/20 05:20:41;;;;;;;4.75;2.42;;;;;;;1.33;74.97;99197.22;5279699;27;33482;-75
2021/12/20 05:23:09;;;;;;;6.28;2.42;;;;;;;1.16;75.61;99185.69;5299580;27;34724;-76
2021/12/20 05:25:38;;;;;;;4.93;2.87;;;;;;;1.72;73.21;99185.28;5298921;27;35533;-70
2021/12/20 05:28:07;;;;;;;5.80;2.60;;;;;;;1.82;72.04;99198.34;5299583;27;34475;-72
2021/12/20 05:30:36;;;;;;;9.98;2.83;;;;;;;1.86;71.45;99201.84;5279493;27;34210;-72
2021/12/20 05:33:04;;;;;;;7.05;2.85;;;;;;;1.70;71.09;99211.78;5298080;27;34041;-70
2021/12/20 05:35:33;;;;;;;3.22;2.05;;;;;;;1.78;71.25;99208.50;5279426;27;35910;-72
2021/12/20 05:38:00;;;;;;;3.53;2.10;;;;;;;1.48;71.32;99202.72;5299536;27;34585;-71
2021/12/20 05:40:28;;;;;;;3.97;2.03;;;;;;;2.08;69.70;99211.75;5297667;27;33599;-76
2021/12/20 05:42:56;;;;;;;3.50;2.08;;;;;;;2.16;69.60;99222.19;5299865;27;33810;-73
2021/12/20 05:45:24;;;;;;;7.03;2.33;;;;;;;1.64;71.10;99214.22;5299688;27;35013;-70
2021/12/20 05:47:52;;;;;;;4.43;2.75;;;;;;;1.25;72.89;99217.56;5299808;27;33986;-72
2021/12/20 05:50:22;;;;;;;3.47;2.00;;;;;;;1.09;73.52;99223.13;5279555;27;33432;-70
2021/12/20 05:52:50;;;;;;;4.82;2.22;;;;;;;1.80;70.78;99224.81;5286193;27;33119;-70
2021/12/20 05:55:19;;;;;;;2.80;1.80;;;;;;;1.84;70.84;99222.34;5298523;27;35190;-76
2021/12/20 05:57:47;;;;;;;5.30;2.15;;;;;;;1.78;70.69;99236.75;5281546;27;34464;-71
2021/12/20 06:00:18;;;;;;;3.62;2.25;;;;;;;1.70;70.92;99237.44;5280860;27;33235;-72
2021/12/20 06:02:48;;;;;;;3.37;2.20;;;;;;;1.41;71.41;99241.91;5299485;27;34132;-71
2021/12/20 06:05:17;;;;;;;5.82;2.47;;;;;;;1.23;71.69;99251.69;5299057;27;35264;-74
2021/12/20 06:07:45;;;;;;;5.40;2.83;;;;;;;1.73;70.34;99251.16;5299718;27;35236;-77
2021/12/20 06:10:16;;;;;;;3.45;2.30;;;;;;;1.07;72.38;99255.56;5281050;27;33431;-74
2021/12/20 06:12:44;;;;;;;7.65;2.53;;;;;;;1.27;71.67;99259.50;5300582;27;33896;-73
2021/12/20 06:15:12;;;;;;;8.00;2.25;;;;;;;1.29;71.71;99270.69;5281391;27;35981;-70
2021/12/20 06:17:41;;;;;;;9.40;2.92;;;;;;;1.63;70.51;99262.94;5279199;27;35063;-71
2021/12/20 06:20:11;;;;;;;5.10;2.80;;;;;;;1.37;71.66;99264.88;5297412;27;34389;-69
2021/12/20 06:22:39;;;;;;;6.50;2.45;;;;;;;1.47;70.13;99269.41;5297418;27;36142;-70
2021/12/20 06:25:08;;;;;;;7.55;2.12;;;;;;;1.02;71.59;99267.38;5297063;27;35949;-70
2021/12/20 06:27:37;;;;;;;8.90;2.70;;;;;;;1.30;71.32;99279.22;5297369;27;34226;-70
2021/12/20 06:30:08;;;;;;;3.53;2.20;;;;;;;1.04;72.52;99281.12;5296428;27;34360;-73
2021/12/20 06:32:38;;;;;;;3.25;2.22;;;;;;;1.41;71.37;99282.94;5297537;27;33926;-72
2021/12/20 06:35:26;;;;;;;8.25;2.87;;;;;;;1.29;70.71;99286.06;5297373;27;34966;-71
2021/12/20 06:38:01;;;;;;;5.03;1.87;;;;;;;1.37;71.03;99286.25;5297867;27;34547;-71
2021/12/20 06:40:31;;;;;;;4.28;2.30;;;;;;;1.40;70.57;99290.59;5279076;27;33376;-71
2021/12/20 06:43:00;;;;;;;4.25;2.50;;;;;;;1.10;70.98;99291.56;5297114;27;33188;-70
2021/12/20 06:45:33;;;;;;;3.42;2.10;;;;;;;0.79;72.63;99295.84;5297600;27;36027;-73
2021/12/20 06:48:01;;;;;;;3.90;2.33;;;;;;;1.14;71.30;99288.22;5295492;27;35179;-71
2021/12/20 06:50:29;;;;;;;6.80;1.87;;;;;;;1.20;71.18;99285.84;5296986;27;34192;-70
2021/12/20 06:52:57;;;;;;;8.48;3.08;;;;;;;1.30;70.35;99300.59;5296824;27;34802;-71
2021/12/20 06:55:26;;;;;;;2.83;1.58;;;;;;;1.28;70.83;99302.28;5277697;27;34671;-75
2021/12/20 06:57:54;;;;;;;3.50;2.05;;;;;;;1.62;69.11;99307.37;5291603;27;35242;-81
2021/12/20 07:00:23;;;;;;;3.28;2.17;;;;;;;1.09;71.04;99298.34;5297214;27;33090;-77
2021/12/20 07:02:51;;;;;;;2.97;1.90;;;;;;;1.09;71.03;99305.19;5297348;27;34560;-80
2021/12/20 07:05:23;;;;;;;3.47;2.10;;;;;;;0.92;71.58;99302.19;5277901;27;34405;-75
2021/12/20 07:07:51;;;;;;;3.75;2.28;;;;;;;1.87;69.32;99308.84;5296964;27;34581;-75
2021/12/20 07:10:19;;;;;;;2.03;1.77;;;;;;;2.27;66.66;99320.88;5297239;27;34456;-74
2021/12/20 07:12:48;;;;;;;3.87;2.03;;;;;;;1.93;67.53;99329.53;5297277;27;34792;-76
2021/12/20 07:15:16;;;;;;;3.00;2.08;;;;;;;2.38;66.16;99323.72;5297258;27;34892;-76
2021/12/20 07:17:44;;;;;;;4.37;2.50;;;;;;;3.19;63.25;99319.34;5297151;27;34395;-76
2021/12/20 07:20:12;;;;;;;10.10;3.60;;;;;;;2.74;63.52;99317.59;5277972;27;32314;-76
2021/12/20 07:22:40;;;;;;;2.55;1.83;;;;;;;2.44;64.83;99323.84;5296760;27;33962;-78
2021/12/20 07:25:09;;;;;;;3.80;1.77;;;;;;;2.44;65.07;99312.69;5277648;27;36295;-78
2021/12/20 07:27:38;;;;;;;6.28;2.15;;;;;;;2.05;67.06;99314.41;5296704;27;34510;-76
2021/12/20 07:30:07;;;;;;;5.07;2.50;;;;;;;2.21;66.39;99313.06;5297165;27;33501;-80
2021/12/20 07:32:35;;;;;;;5.62;2.78;;;;;;;2.71;64.86;99316.69;5297398;27;33882;-75
2021/12/20 07:35:03;;;;;;;6.03;2.75;;;;;;;2.96;63.96;99320.59;5277776;27;35808;-76
2021/12/20 07:37:31;;;;;;;7.37;2.83;;;;;;;3.43;62.77;99315.47;5297191;27;34599;-76
2021/12/20 07:39:59;;;;;;;4.47;2.75;;;;;;;3.46;62.05;99315.53;5296859;27;33632;-77
2021/12/20 07:42:27;;;;;;;3.55;1.90;;;;;;;3.35;62.65;99312.78;5295545;27;33937;-73
2021/12/20 07:44:59;;;;;;;5.15;2.53;;;;;;;3.75;60.75;99308.28;5296138;27;34588;-73
2021/12/20 07:47:47;;;;;;;7.33;2.23;;;;;;;4.49;59.34;99293.03;5295424;27;34660;-71
2021/12/20 07:50:17;;;;;;;5.35;2.30;;;;;;;4.26;58.98;99303.03;5277771;27;32852;-79
2021/12/20 07:52:46;;;;;;;4.35;1.85;;;;;;;4.18;58.62;99308.06;5296536;27;34014;-74
2021/12/20 07:55:15;;;;;;;5.57;2.22;;;;;;;4.82;58.73;99302.91;5277765;27;35111;-74
2021/12/20 07:57:43;;;;;;;6.15;2.17;;;;;;;5.01;56.78;99316.00;5297956;27;35187;-72
2021/12/20 08:00:12;;;;;;;2.35;1.50;;;;;;;5.53;56.04;99310.53;5280188;27;33606;-72
2021/12/20 08:02:40;;;;;;;2.35;1.50;;;;;;;5.39;55.76;99313.81;5298519;27;33947;-78
2021/12/20 08:05:09;;;;;;;4.43;1.70;;;;;;;4.22;58.46;99315.00;5299259;27;35038;-77
2021/12/20 08:07:38;;;;;;;6.28;2.28;;;;;;;4.08;60.39;99332.84;5299372;27;35172;-76
2021/12/20 08:10:07;;;;;;;3.40;2.05;;;;;;;4.92;58.65;99329.66;5280076;27;33280;-82
2021/12/20 08:12:35;;;;;;;4.43;2.45;;;;;;;5.27;56.92;99322.31;5299354;27;34036;-78
2021/12/20 08:15:04;;;;;;;4.85;2.45;;;;;;;5.02;57.00;99321.19;5297851;27;35026;-77
2021/12/20 08:17:31;;;;;;;3.58;1.73;;;;;;;4.61;58.43;99333.59;5280546;27;34961;-72
2021/12/20 08:20:00;;;;;;;3.67;1.98;;;;;;;4.12;59.46;99336.34;5279799;27;33619;-79
2021/12/20 08:22:28;;;;;;;2.22;1.55;;;;;;;4.41;58.22;99341.03;5300380;27;33954;-81
2021/12/20 08:24:56;;;;;;;3.03;1.50;;;;;;;4.43;58.20;99339.34;5279442;27;35844;-72
2021/12/20 08:27:25;;;;;;;3.42;1.90;;;;;;;4.42;58.46;99342.78;5280675;27;35341;-78
2021/12/20 08:29:53;;;;;;;2.60;1.87;;;;;;;4.57;57.14;99343.00;5279851;27;33500;-78
2021/12/20 08:32:21;;;;;;;3.12;1.83;;;;;;;5.13;56.98;99349.69;5299707;27;34033;-80
2021/12/20 08:34:54;;;;;;;3.33;1.65;;;;;;;4.78;56.53;99347.53;5297736;27;35078;-79
2021/12/20 08:37:22;;;;;;;5.93;1.62;;;;;;;4.95;55.55;99352.94;5297899;27;35150;-76
2021/12/20 08:39:51;;;;;;;3.58;1.50;;;;;;;5.07;54.92;99365.97;5279246;27;33529;-81
2021/12/20 08:42:20;;;;;;;5.07;1.73;;;;;;;5.76;54.15;99358.06;5280191;27;33946;-76
2021/12/20 08:44:49;;;;;;;4.40;1.62;;;;;;;5.88;52.76;99363.34;5294870;27;34666;-70
2021/12/20 08:47:17;;;;;;;1.83;1.12;;;;;;;6.96;51.13;99353.72;5296999;27;34159;-70
2021/12/20 08:49:45;;;;;;;1.92;1.37;;;;;;;6.48;51.18;99347.44;5297051;27;33554;-74
2021/12/20 08:52:14;;;;;;;1.08;0.98;;;;;;;6.69;50.51;99346.69;5279556;27;34253;-77
2021/12/20 08:54:42;;;;;;;2.50;1.45;;;;;;;6.11;51.03;99339.44;5298684;27;34819;-84
2021/12/20 08:57:11;;;;;;;3.15;1.55;;;;;;;6.35;50.37;99332.69;5298835;27;35060;-78
2021/12/20 08:59:39;;;;;;;1.85;1.23;;;;;;;6.47;50.71;99317.25;5279259;27;34622;-84
2021/12/20 09:02:08;;;;;;;2.10;1.60;;;;;;;6.29;50.29;99307.66;5298807;27;33952;-75
2021/12/20 09:04:38;;;;;;;4.82;1.52;;;;;;;6.07;51.32;99324.75;5280248;27;35906;-76
2021/12/20 09:07:08;;;;;;;5.85;1.90;;;;;;;5.67;52.38;99332.16;5279892;27;34521;-71
2021/12/20 09:09:39;;;;;;;2.37;1.30;;;;;;;5.06;53.70;99338.41;5298821;27;34337;-79
2021/12/20 09:12:08;;;;;;;2.87;1.65;;;;;;;5.63;53.16;99339.03;5299405;27;33968;-79
2021/12/20 09:14:37;;;;;;;2.28;1.25;;;;;;;5.62;51.84;99341.59;5298477;27;35566;-70
2021/12/20 09:17:06;;;;;;;6.37;1.98;;;;;;;5.52;52.72;99338.03;5297181;27;34489;-79
2021/12/20 09:19:36;;;;;;;2.87;1.42;;;;;;;5.63;52.18;99339.03;5300437;27;33514;-79
2021/12/20 09:22:10;;;;;;;2.80;1.37;;;;;;;6.00;51.20;99341.06;5281106;27;33381;-74
2021/12/20 09:24:39;;;;;;;4.85;1.73;;;;;;;5.96;50.73;99336.72;5299484;27;35050;-78
2021/12/20 09:27:08;;;;;;;4.97;1.70;;;;;;;4.80;53.89;99337.25;5298908;27;35114;-87
2021/12/20 09:29:37;;;;;;;4.78;2.20;;;;;;;5.46;52.99;99332.84;5278206;27;33059;-75
2021/12/20 09:32:06;;;;;;;1.08;1.05;;;;;;;5.26;53.29;99327.47;5300137;27;34878;-74
2021/12/20 09:34:35;;;;;;;3.05;1.67;;;;;;;5.09;53.19;99328.13;5299070;27;35972;-76
2021/12/20 09:37:06;;;;;;;3.47;1.60;;;;;;;5.44;52.09;99326.78;5298192;27;35180;-70
2021/12/20 09:39:38;;;;;;;3.95;1.62;;;;;;;4.57;54.24;99312.06;5299200;27;33533;-71
2021/12/20 09:42:08;;;;;;;1.48;1.37;;;;;;;4.77;54.39;99320.03;5299891;27;33384;-77
2021/12/20 09:44:37;;;;;;;1.70;1.30;;;;;;;5.42;52.65;99302.69;5298463;27;35800;-75
2021/12/20 09:47:05;;;;;;;2.10;1.17;;;;;;;5.28;53.23;99318.03;5299830;27;34487;-71
2021/12/20 09:49:33;;;;;;;10.27;1.85;;;;;;;6.61;50.63;99317.31;5281105;27;33638;-70
2021/12/20 09:52:03;;;;;;;1.70;1.10;;;;;;;6.48;50.62;99313.81;5299134;27;33865;-73
2021/12/20 09:54:32;;;;;;;1.17;1.02;;;;;;;6.79;49.43;99313.94;5300159;27;35066;-75
2021/12/20 09:57:02;;;;;;;1.58;1.45;;;;;;;7.12;48.05;99323.56;5299771;27;34496;-76
2021/12/20 09:59:31;;;;;;;3.97;1.65;;;;;;;6.44;49.65;99318.09;5300333;27;33449;-79
2021/12/20 10:01:59;;;;;;;4.37;1.23;;;;;;;7.13;47.53;99307.19;5298481;27;33859;-70
2021/12/20 10:04:27;;;;;;;1.08;1.02;;;;;;;7.00;48.14;99324.38;5300167;27;35940;-73
2021/12/20 10:06:59;;;;;;;2.85;1.20;;;;;;;7.03;48.05;99334.75;5280155;27;33738;-77
2021/12/20 10:09:33;;;;;;;4.00;1.67;;;;;;;7.78;46.88;99330.56;5281448;27;33562;-81
2021/12/20 10:12:19;;;;;;;3.00;1.23;;;;;;;7.95;47.08;99322.81;5298099;27;33943;-79
2021/12/20 10:14:56;;;;;;;2.67;1.50;;;;;;;8.32;45.84;99321.03;5300357;27;35896;-87
2021/12/20 10:17:35;;;;;;;2.35;1.55;;;;;;;8.20;45.10;99317.59;5299572;27;34562;-71
2021/12/20 10:20:15;;;;;;;2.35;1.40;;;;;;;8.10;45.70;99333.16;5280652;27;33473;-72
2021/12/20 10:22:43;;;;;;;2.85;1.77;;;;;;;7.53;47.15;99325.38;5300275;27;33819;-72
2021/12/20 10:25:22;;;;;;;4.18;1.62;;;;;;;8.65;46.04;99344.34;5299611;27;35108;-71
2021/12/20 10:27:51;;;;;;;2.58;1.23;;;;;;;8.36;46.01;99329.66;5280487;27;34709;-71
2021/12/20 10:30:31;;;;;;;1.42;1.15;;;;;;;8.90;43.73;99345.97;5262207;27;33486;-82
2021/12/20 10:32:59;;;;;;;3.12;1.48;;;;;;;8.60;44.04;99343.50;5300039;27;33955;-70
2021/12/20 10:35:30;;;;;;;1.70;1.50;;;;;;;8.86;43.45;99366.78;5299192;27;35966;-75
2021/12/20 10:38:01;;;;;;;3.87;1.40;;;;;;;8.54;44.89;99341.75;5297937;27;35258;-76
2021/12/20 10:40:30;;;;;;;3.42;1.50;;;;;;;8.39;45.23;99352.16;5299733;27;33553;-74
2021/12/20 10:42:59;;;;;;;2.87;1.50;;;;;;;8.72;44.47;99357.28;5300557;27;34685;-85
2021/12/20 10:45:27;;;;;;;3.40;1.27;;;;;;;8.26;44.95;99359.06;5280587;27;36042;-83
2021/12/20 10:48:11;;;;;;;3.40;1.70;;;;;;;8.84;43.98;99371.97;5299953;27;34444;-89
2021/12/20 10:50:43;;;;;;;5.32;1.80;;;;;;;9.53;43.57;99375.09;5298789;27;33401;-87
2021/12/20 10:53:11;;;;;;;3.22;1.52;;;;;;;9.30;44.12;99368.34;5288659;27;298471;-84
2021/12/20 10:55:45;;;;;;;3.10;1.42;;;;;;;8.21;46.35;99376.41;5299660;27;35156;-77
2021/12/20 10:58:28;;;;;;;4.35;1.60;;;;;;;8.86;44.63;99378.03;5264529;27;34368;-79
2021/12/20 11:01:36;;;;;;;4.57;1.52;;;;;;;8.39;45.47;99385.88;5299789;27;33344;-80
2021/12/20 11:04:11;;;;;;;2.70;1.50;;;;;;;7.84;47.17;99389.34;5300126;27;33999;-77
2021/12/20 11:09:18;;;;;;;2.67;1.50;;;;;;;6.83;49.48;99377.81;5299820;27;35123;-79
2021/12/20 11:11:55;;;;;;;4.35;2.15;;;;;;;6.53;51.23;99378.50;5299264;27;32619;-80
2021/12/20 11:14:30;;;;;;;3.47;1.70;;;;;;;7.55;50.00;99377.19;5298987;27;34132;-79
2021/12/20 11:16:59;;;;;;;3.97;1.60;;;;;;;6.67;50.52;99382.06;5299670;27;35790;-82
2021/12/20 11:19:29;;;;;;;5.03;1.70;;;;;;;7.46;49.33;99366.81;5280647;27;34412;-73
2021/12/20 11:22:10;;;;;;;4.32;1.35;;;;;;;8.35;47.05;99362.53;5299553;27;33498;-82
2021/12/20 11:24:50;;;;;;;4.12;1.90;;;;;;;8.39;47.18;99371.19;5280332;27;34792;-77
2021/12/20 11:27:21;;;;;;;5.75;1.67;;;;;;;8.22;46.88;99373.78;5298372;27;35967;-74
2021/12/20 11:29:53;;;;;;;3.55;1.48;;;;;;;6.83;49.77;99367.47;5300087;27;34606;-80
2021/12/20 11:32:23;;;;;;;2.75;1.85;;;;;;;6.55;50.28;99369.91;5280386;27;34437;-76
2021/12/20 11:34:52;;;;;;;6.15;2.00;;;;;;;5.77;52.43;99370.16;5300008;27;33931;-70
2021/12/20 11:37:23;;;;;;;2.70;1.52;;;;;;;6.81;51.92;99375.22;5299438;27;34926;-71
2021/12/20 11:39:52;;;;;;;6.45;2.35;;;;;;;6.47;51.19;99366.41;5280212;27;34474;-73
2021/12/20 11:42:21;;;;;;;2.83;1.42;;;;;;;7.40;49.76;99365.94;5299534;27;33620;-74
2021/12/20 11:44:54;;;;;;;4.93;1.55;;;;;;;7.39;48.98;99366.81;5280630;27;33761;-70
2021/12/20 11:47:32;;;;;;;3.42;2.00;;;;;;;7.26;48.73;99367.63;5297599;27;35093;-71
2021/12/20 11:50:10;;;;;;;3.00;1.90;;;;;;;6.73;50.31;99376.03;5280520;27;35286;-71
2021/12/20 11:52:41;;;;;;;3.42;1.95;;;;;;;6.26;50.88;99372.28;5298024;27;34217;-80
2021/12/20 11:55:29;;;;;;;2.80;1.83;;;;;;;6.33;50.96;99378.38;5299726;27;33918;-70
2021/12/20 11:58:03;;;;;;;4.00;1.40;;;;;;;5.79;53.96;99386.53;5300108;27;35045;-79
2021/12/20 12:00:36;;;;;;;3.97;1.83;;;;;;;6.27;51.30;99376.63;5298012;27;34471;-79
2021/12/20 12:03:05;;;;;;;3.10;1.30;;;;;;;6.93;50.16;99369.22;5300196;27;33216;-80
2021/12/20 12:05:56;;;;;;;2.83;1.33;;;;;;;6.76;50.57;99370.84;5298079;27;33320;-87
2021/12/20 12:08:43;;;;;;;2.47;1.45;;;;;;;6.71;51.11;99382.94;5280738;27;35084;-81
2021/12/20 12:11:11;;;;;;;3.55;1.65;;;;;;;6.48;50.70;99375.00;5299069;27;34195;-84
2021/12/20 12:13:50;;;;;;;2.78;1.73;;;;;;;7.20;49.57;99373.66;5300110;27;33569;-74
2021/12/20 12:19:39;;;;;;;2.30;1.47;;;;;;;6.34;50.88;99377.53;5297219;27;35870;-79